Time;durP1;ratioP1;P1;durP2;ratioP2;P2;SDS_P1;SDS_P2;PMS_P1;PMS_P2;Temp;Humidity;BMP_temperature;BMP_pressure;BME280_temperature;BME280_humidity;BME280_pressure;Samples;Min_cycle;Max_cycle;Signal;HPM_P1;HPM_P2
2022/05/03 00:02:37;;;;;;;10.68;9.45;;;7.60;99.90;;;;;;5023429;28;20065;-58
2022/05/03 00:05:04;;;;;;;8.93;8.02;;;7.30;99.90;;;;;;5014710;28;20547;-58
2022/05/03 00:07:51;;;;;;;12.65;9.68;;;7.50;99.90;;;;;;5014740;28;20508;-59
2022/05/03 00:10:33;;;;;;;11.70;10.10;;;7.40;99.90;;;;;;5032641;28;20792;-58
2022/05/03 00:13:11;;;;;;;10.55;9.55;;;7.30;99.90;;;;;;5032568;28;20137;-58
2022/05/03 00:15:40;;;;;;;12.32;9.98;;;7.40;99.90;;;;;;5032475;28;20097;-59
2022/05/03 00:18:07;;;;;;;10.38;9.38;;;7.30;99.90;;;;;;5032299;28;20060;-59
2022/05/03 00:20:35;;;;;;;11.80;8.73;;;7.40;99.90;;;;;;5032257;28;20045;-58
2022/05/03 00:23:01;;;;;;;8.82;7.10;;;7.50;99.90;;;;;;5032427;28;20128;-58
2022/05/03 00:25:29;;;;;;;6.82;6.18;;;7.40;99.90;;;;;;5032356;28;20131;-58
2022/05/03 00:27:55;;;;;;;7.03;6.13;;;7.10;99.90;;;;;;5032377;28;20046;-59
2022/05/03 00:30:21;;;;;;;10.00;7.47;;;7.10;99.90;;;;;;5032013;28;20061;-58
2022/05/03 00:32:48;;;;;;;8.45;7.65;;;6.80;99.90;;;;;;5032213;28;20146;-58
2022/05/03 00:35:16;;;;;;;7.78;6.95;;;7.00;99.90;;;;;;5014892;28;20445;-58
2022/05/03 00:37:42;;;;;;;10.55;8.55;;;6.90;99.90;;;;;;5032222;28;20045;-58
2022/05/03 00:40:10;;;;;;;12.57;9.18;;;6.80;99.90;;;;;;5032302;28;20054;-60
2022/05/03 00:42:46;;;;;;;11.20;9.85;;;6.90;99.90;;;;;;5032153;28;20081;-58
2022/05/03 00:45:15;;;;;;;10.83;9.43;;;6.70;99.90;;;;;;5032116;28;20134;-60
2022/05/03 00:48:01;;;;;;;10.68;9.38;;;6.90;99.90;;;;;;5014368;28;20118;-58
2022/05/03 00:50:48;;;;;;;13.73;9.18;;;6.70;99.90;;;;;;5015960;28;20049;-58
2022/05/03 00:53:21;;;;;;;13.32;10.55;;;7.00;99.90;;;;;;5036152;28;20055;-58
2022/05/03 00:56:23;;;;;;;11.05;9.80;;;7.20;99.90;;;;;;5035934;28;20057;-58
2022/05/03 00:59:17;;;;;;;16.35;8.98;;;6.80;99.90;;;;;;5036143;28;20055;-59
2022/05/03 01:02:02;;;;;;;14.90;10.05;;;7.00;99.90;;;;;;5035917;28;20572;-60
2022/05/03 01:05:15;;;;;;;11.82;10.18;;;7.10;99.90;;;;;;5036131;28;20050;-61
2022/05/03 01:08:02;;;;;;;15.02;11.07;;;6.70;99.90;;;;;;5014358;28;20100;-58
2022/05/03 01:10:51;;;;;;;18.27;12.05;;;6.90;99.90;;;;;;5035713;28;20691;-58
2022/05/03 01:13:29;;;;;;;13.43;11.00;;;6.60;99.90;;;;;;5035880;28;20053;-58
2022/05/03 01:16:03;;;;;;;15.25;11.68;;;6.60;99.90;;;;;;5035756;28;20046;-58
2022/05/03 01:18:41;;;;;;;13.35;11.88;;;6.90;99.90;;;;;;5035715;28;20382;-59
2022/05/03 01:21:37;;;;;;;13.82;12.15;;;6.80;99.90;;;;;;5035765;28;20088;-58
2022/05/03 01:24:28;;;;;;;14.23;11.88;;;7.10;99.90;;;;;;5035525;28;20063;-60
2022/05/03 01:27:51;;;;;;;14.15;11.90;;;6.80;99.90;;;;;;5035521;28;20045;-58
2022/05/03 01:30:17;;;;;;;14.52;12.50;;;7.00;99.90;;;;;;4919761;29;20060;-58
2022/05/03 01:32:45;;;;;;;19.60;14.20;;;6.80;99.90;;;;;;4935831;29;20123;-60
2022/05/03 01:35:14;;;;;;;15.40;13.48;;;7.00;99.90;;;;;;4996268;28;20057;-58
2022/05/03 01:38:02;;;;;;;17.40;13.45;;;7.20;99.90;;;;;;5035223;28;20056;-58
2022/05/03 01:40:43;;;;;;;16.75;13.68;;;7.00;99.90;;;;;;5035247;28;20042;-58
2022/05/03 01:43:33;;;;;;;16.60;14.10;;;7.00;99.90;;;;;;5035230;28;20059;-58
2022/05/03 01:46:16;;;;;;;19.45;15.48;;;7.00;99.90;;;;;;4984967;28;20465;-59
2022/05/03 01:52:20;;;;;;;23.15;17.45;;;7.20;99.90;;;;;;5035024;28;20056;-58
2022/05/03 01:55:17;;;;;;;23.58;17.27;;;7.30;99.90;;;;;;5035186;28;20053;-58
2022/05/03 01:57:51;;;;;;;25.08;17.98;;;7.20;99.90;;;;;;5035067;28;20508;-58
2022/05/03 02:00:20;;;;;;;21.63;16.33;;;7.60;99.90;;;;;;5034829;28;20426;-61
2022/05/03 02:03:04;;;;;;;20.52;16.05;;;7.60;99.90;;;;;;5034444;28;20041;-58
2022/05/03 02:05:44;;;;;;;21.60;15.63;;;7.60;99.90;;;;;;5034749;28;20577;-58
2022/05/03 02:08:19;;;;;;;22.90;16.95;;;7.30;99.90;;;;;;5034822;28;20053;-58
2022/05/03 02:11:01;;;;;;;23.58;17.27;;;8.00;99.90;;;;;;5034655;28;20095;-59
2022/05/03 02:17:00;;;;;;;25.77;18.67;;;8.10;99.90;;;;;;5034558;28;20512;-58
2022/05/03 02:19:54;;;;;;;22.73;18.02;;;7.70;99.90;;;;;;5024724;28;20054;-59
2022/05/03 02:22:59;;;;;;;32.42;21.13;;;7.90;99.90;;;;;;5034520;28;20136;-59
2022/05/03 02:25:36;;;;;;;27.05;19.15;;;9.10;99.90;;;;;;4985060;28;20401;-59
2022/05/03 02:28:19;;;;;;;26.33;20.00;;;8.00;99.90;;;;;;5034291;28;20536;-58
2022/05/03 02:30:49;;;;;;;26.13;20.30;;;8.30;99.90;;;;;;5034295;28;20053;-58
2022/05/03 02:33:31;;;;;;;27.52;21.13;;;8.10;99.90;;;;;;5034241;28;20057;-59
2022/05/03 02:35:59;;;;;;;29.02;22.00;;;8.50;99.90;;;;;;5034153;28;20046;-58
2022/05/03 02:38:37;;;;;;;34.42;23.80;;;8.40;99.90;;;;;;5034312;28;20049;-59
2022/05/03 02:41:03;;;;;;;35.38;24.27;;;8.30;99.90;;;;;;5016752;28;20100;-59
2022/05/03 02:43:30;;;;;;;;;;;8.70;99.90;;;;;;5034627;28;20426;-59
2022/05/03 02:46:09;;;;;;;36.97;25.95;;;8.70;99.90;;;;;;5034107;28;19925;-58
2022/05/03 02:48:45;;;;;;;43.58;27.38;;;8.40;99.90;;;;;;5033866;28;20052;-59
2022/05/03 02:51:13;;;;;;;41.47;27.50;;;8.40;99.90;;;;;;5034107;28;20076;-59
2022/05/03 02:53:53;;;;;;;41.45;27.45;;;8.90;99.90;;;;;;5016331;28;20049;-58
2022/05/03 02:56:22;;;;;;;39.30;27.33;;;8.80;99.90;;;;;;5033792;28;20048;-59
2022/05/03 02:59:18;;;;;;;36.83;27.48;;;8.90;99.90;;;;;;5033633;28;20523;-59
2022/05/03 03:02:11;;;;;;;41.67;28.48;;;9.10;99.90;;;;;;5033877;28;20119;-59
2022/05/03 03:05:07;;;;;;;42.40;27.85;;;8.70;99.90;;;;;;5033850;28;20132;-58
2022/05/03 03:07:49;;;;;;;41.10;28.75;;;8.80;99.90;;;;;;5025557;28;20506;-59
2022/05/03 03:10:20;;;;;;;41.25;28.85;;;8.90;99.90;;;;;;5033553;28;20045;-59
2022/05/03 03:13:02;;;;;;;40.60;28.45;;;8.90;99.90;;;;;;5033226;28;20560;-58
2022/05/03 03:15:29;;;;;;;37.03;27.65;;;9.10;99.90;;;;;;5033179;28;20156;-59
2022/05/03 03:18:00;;;;;;;44.92;30.50;;;8.80;99.90;;;;;;5033835;28;20397;-60
2022/05/03 03:20:27;;;;;;;52.13;29.83;;;8.80;99.90;;;;;;5033475;28;20037;-59
2022/05/03 03:22:54;;;;;;;48.28;30.20;;;8.90;99.90;;;;;;5033453;28;20048;-59
2022/05/03 03:25:21;;;;;;;45.72;28.92;;;9.40;99.90;;;;;;5033335;28;20045;-59
2022/05/03 03:27:51;;;;;;;48.65;30.75;;;9.10;99.90;;;;;;5033263;28;20446;-58
2022/05/03 03:30:17;;;;;;;43.90;30.33;;;9.00;99.90;;;;;;5032803;28;20045;-59
2022/05/03 03:32:51;;;;;;;42.00;28.13;;;10.10;99.90;;;;;;5033332;28;20100;-58
2022/05/03 03:35:18;;;;;;;46.15;30.17;;;9.40;99.90;;;;;;5033257;28;20124;-59
2022/05/03 03:37:49;;;;;;;47.85;31.15;;;9.70;99.90;;;;;;5033207;28;20099;-59
2022/05/03 03:40:16;;;;;;;47.60;29.85;;;9.00;99.90;;;;;;5033118;28;20045;-60
2022/05/03 03:42:43;;;;;;;50.08;31.38;;;10.00;99.90;;;;;;5032789;28;20049;-59
2022/05/03 03:45:11;;;;;;;49.85;30.85;;;9.20;99.90;;;;;;5033018;28;20420;-59
2022/05/03 03:47:39;;;;;;;48.25;31.23;;;9.00;99.90;;;;;;5032941;28;20046;-59
2022/05/03 03:50:06;;;;;;;56.25;34.30;;;10.30;99.90;;;;;;5032808;28;20037;-60
2022/05/03 03:52:38;;;;;;;54.45;32.13;;;9.40;99.90;;;;;;5032862;28;20064;-58
2022/05/03 03:55:04;;;;;;;60.42;34.72;;;9.20;99.90;;;;;;5032626;28;20060;-59
2022/05/03 03:57:31;;;;;;;55.53;32.55;;;9.20;99.90;;;;;;5032672;28;20054;-58
2022/05/03 03:59:59;;;;;;;59.95;33.33;;;9.50;99.90;;;;;;5032977;28;20124;-59
2022/05/03 04:02:26;;;;;;;65.63;35.25;;;11.00;99.90;;;;;;5032825;28;20059;-59
2022/05/03 04:04:53;;;;;;;72.35;38.20;;;10.30;99.90;;;;;;5032619;28;20049;-59
2022/05/03 04:07:19;;;;;;;66.38;36.25;;;10.40;99.90;;;;;;5032610;28;20056;-58
2022/05/03 04:09:44;;;;;;;73.40;37.50;;;10.70;99.90;;;;;;5032524;28;20081;-58
2022/05/03 04:12:10;;;;;;;68.15;36.92;;;10.60;99.90;;;;;;5032653;28;20085;-60
2022/05/03 04:14:36;;;;;;;68.15;35.08;;;9.60;99.90;;;;;;5015213;28;20060;-59
2022/05/03 04:17:02;;;;;;;64.10;32.72;;;9.90;99.90;;;;;;5032453;28;20045;-59
2022/05/03 04:19:27;;;;;;;59.50;32.75;;;9.70;99.90;;;;;;5032485;28;20087;-59
2022/05/03 04:21:53;;;;;;;63.13;34.17;;;10.20;99.90;;;;;;5032419;28;20493;-58
2022/05/03 04:24:19;;;;;;;60.10;32.78;;;9.80;99.90;;;;;;5014377;28;20529;-59
2022/05/03 04:26:45;;;;;;;63.53;33.10;;;10.00;99.90;;;;;;5032557;28;20046;-59
2022/05/03 04:29:11;;;;;;;59.78;33.33;;;9.90;99.90;;;;;;5032032;28;20064;-60
2022/05/03 04:31:37;;;;;;;58.13;31.98;;;9.90;99.90;;;;;;5014815;28;20099;-59
2022/05/03 04:34:05;;;;;;;60.72;32.55;;;10.00;99.90;;;;;;5014667;28;20064;-60
2022/05/03 04:36:32;;;;;;;58.42;33.20;;;10.50;99.90;;;;;;5032161;28;20053;-61
2022/05/03 04:38:59;;;;;;;62.97;32.42;;;9.70;99.90;;;;;;5032203;28;20049;-59
2022/05/03 04:41:25;;;;;;;58.72;31.05;;;10.20;99.90;;;;;;5032415;28;20046;-59
2022/05/03 04:43:51;;;;;;;54.47;28.08;;;9.90;99.90;;;;;;5032318;28;20055;-62
2022/05/03 04:46:17;;;;;;;57.05;28.63;;;11.00;99.90;;;;;;5032281;28;20444;-60
2022/05/03 04:48:43;;;;;;;49.20;23.80;;;10.30;99.90;;;;;;5032232;28;20454;-60
2022/05/03 04:51:23;;;;;;;37.58;21.02;;;9.80;99.90;;;;;;5032089;28;20054;-58
2022/05/03 04:53:50;;;;;;;33.00;19.80;;;9.50;99.90;;;;;;5032013;28;20493;-59
2022/05/03 04:56:18;;;;;;;28.88;17.65;;;9.80;99.90;;;;;;5032171;28;20049;-61
2022/05/03 04:58:44;;;;;;;25.58;16.50;;;10.10;99.90;;;;;;5032123;28;20052;-60
2022/05/03 05:01:09;;;;;;;28.10;16.52;;;10.00;99.90;;;;;;5031914;28;20049;-60
2022/05/03 05:03:35;;;;;;;21.95;15.60;;;9.80;99.90;;;;;;5032018;28;20081;-59
2022/05/03 05:06:00;;;;;;;22.85;15.57;;;10.10;99.90;;;;;;5031893;28;20501;-59
2022/05/03 05:08:26;;;;;;;21.55;15.20;;;10.20;99.90;;;;;;5032169;28;20049;-59
2022/05/03 05:10:52;;;;;;;20.73;13.45;;;10.00;99.90;;;;;;5031993;28;20042;-60
2022/05/03 05:13:17;;;;;;;22.90;12.18;;;10.10;99.90;;;;;;5014369;28;20103;-60
2022/05/03 05:15:43;;;;;;;17.77;10.88;;;10.30;99.90;;;;;;5031984;28;20176;-60
2022/05/03 05:18:09;;;;;;;20.77;9.85;;;10.20;99.90;;;;;;5014485;28;20065;-62
2022/05/03 05:20:34;;;;;;;24.05;9.48;;;9.80;99.90;;;;;;5014409;28;20038;-60
2022/05/03 05:23:00;;;;;;;21.98;9.73;;;10.00;99.90;;;;;;5031792;28;20559;-59
2022/05/03 05:25:26;;;;;;;23.70;10.85;;;10.30;99.90;;;;;;5031992;28;20061;-60
2022/05/03 05:27:51;;;;;;;24.08;9.80;;;9.90;99.90;;;;;;5014185;28;20049;-60
2022/05/03 05:30:17;;;;;;;23.90;9.85;;;10.00;99.90;;;;;;5031848;28;20070;-61
2022/05/03 05:32:43;;;;;;;30.20;9.48;;;10.20;99.90;;;;;;5031859;28;20057;-59
2022/05/03 05:35:09;;;;;;;26.55;10.43;;;9.70;99.90;;;;;;5031709;28;20103;-60
2022/05/03 05:37:34;;;;;;;25.02;8.88;;;9.60;99.90;;;;;;5033592;28;20104;-59
2022/05/03 05:40:00;;;;;;;23.67;8.20;;;9.60;99.90;;;;;;5035283;28;20077;-60
2022/05/03 05:42:26;;;;;;;26.00;7.53;;;9.90;99.90;;;;;;5035355;28;20111;-60
2022/05/03 05:44:52;;;;;;;27.30;7.65;;;9.70;99.90;;;;;;5035349;28;20396;-60
2022/05/03 05:47:18;;;;;;;;;;;10.00;99.90;;;;;;5035590;28;20509;-59
2022/05/03 05:49:44;;;;;;;16.83;6.20;;;9.60;99.90;;;;;;5035013;28;19921;-61
2022/05/03 05:54:54;;;;;;;23.13;5.97;;;9.80;99.90;;;;;;5035174;28;20096;-60
2022/05/03 05:57:20;;;;;;;21.05;6.45;;;9.40;99.90;;;;;;5035083;28;20081;-60
2022/05/03 05:59:46;;;;;;;17.65;6.07;;;9.60;99.90;;;;;;5017481;28;20084;-60
2022/05/03 06:02:12;;;;;;;32.55;7.20;;;9.40;99.90;;;;;;5034806;28;20049;-61
2022/05/03 06:04:37;;;;;;;28.45;7.80;;;10.30;99.90;;;;;;5022376;28;20050;-69
2022/05/03 06:07:03;;;;;;;30.90;7.95;;;9.20;99.90;;;;;;4988264;28;20138;-61
2022/05/03 06:09:29;;;;;;;28.08;9.02;;;9.70;99.90;;;;;;5012093;28;20050;-60
2022/05/03 06:11:54;;;;;;;24.25;7.60;;;9.40;99.90;;;;;;5012509;28;20050;-60
2022/05/03 06:14:20;;;;;;;25.17;8.10;;;9.50;99.90;;;;;;5012379;28;20104;-60
2022/05/03 06:16:53;;;;;;;30.85;7.47;;;9.50;99.90;;;;;;5007430;28;20050;-61
2022/05/03 06:19:19;;;;;;;26.70;8.40;;;9.40;99.90;;;;;;5012045;28;20048;-60
2022/05/03 06:21:46;;;;;;;27.95;7.63;;;9.50;99.90;;;;;;5011917;28;20052;-60
2022/05/03 06:24:12;;;;;;;21.80;7.38;;;10.30;99.90;;;;;;5012327;28;20053;-60
2022/05/03 06:26:38;;;;;;;31.05;8.18;;;10.00;99.90;;;;;;5007559;28;20101;-63
2022/05/03 06:29:06;;;;;;;21.92;7.68;;;9.60;99.90;;;;;;5011748;28;20045;-60
2022/05/03 06:31:33;;;;;;;26.60;7.18;;;9.30;99.90;;;;;;5011677;28;20060;-64
2022/05/03 06:34:00;;;;;;;28.02;7.57;;;9.60;99.90;;;;;;5012327;28;20056;-60
2022/05/03 06:36:26;;;;;;;21.20;7.88;;;9.70;99.90;;;;;;5005907;28;20199;-60
2022/05/03 06:38:52;;;;;;;26.60;7.13;;;10.60;99.90;;;;;;5012431;28;20056;-60
2022/05/03 06:41:17;;;;;;;25.10;6.25;;;9.80;99.90;;;;;;5011685;28;20054;-62
2022/05/03 06:43:43;;;;;;;26.35;7.05;;;9.90;99.90;;;;;;5011705;28;20136;-60
2022/05/03 06:46:10;;;;;;;24.13;6.28;;;10.00;99.90;;;;;;5006744;28;20045;-66
2022/05/03 06:48:36;;;;;;;27.63;7.03;;;9.80;99.90;;;;;;5007805;28;20049;-61
2022/05/03 06:51:03;;;;;;;18.40;5.82;;;9.70;99.90;;;;;;5011115;28;20045;-62
2022/05/03 06:53:29;;;;;;;23.65;5.65;;;9.90;99.90;;;;;;5011654;28;20092;-60
2022/05/03 06:55:55;;;;;;;23.15;6.38;;;9.80;99.90;;;;;;5006992;28;20058;-60
2022/05/03 06:58:21;;;;;;;27.50;6.15;;;9.80;99.90;;;;;;5011409;28;20099;-60
2022/05/03 07:00:46;;;;;;;25.08;6.03;;;9.80;99.90;;;;;;4993722;28;20207;-60
2022/05/03 07:03:12;;;;;;;19.92;5.18;;;10.00;99.90;;;;;;5011772;28;20091;-60
2022/05/03 07:05:39;;;;;;;20.10;5.57;;;9.90;99.90;;;;;;5006458;28;20054;-60
2022/05/03 07:08:08;;;;;;;20.45;5.35;;;9.60;99.90;;;;;;5011763;28;20053;-60
2022/05/03 07:10:34;;;;;;;22.35;5.28;;;9.40;99.90;;;;;;5011196;28;20046;-60
2022/05/03 07:13:00;;;;;;;;;;;10.30;99.90;;;;;;5014595;28;20048;-60
2022/05/03 07:15:27;;;;;;;17.58;5.72;;;8.30;99.90;;;;;;4990842;28;19921;-59
2022/05/03 07:23:22;;;;;;;15.82;4.97;;;10.30;99.90;;;;;;5013376;28;20052;-59
2022/05/03 07:25:47;;;;;;;19.83;4.82;;;9.90;99.90;;;;;;5013261;28;20061;-59
2022/05/03 07:28:13;;;;;;;16.85;4.72;;;10.50;99.90;;;;;;5013210;28;20045;-59
2022/05/03 07:30:38;;;;;;;19.85;4.60;;;11.20;99.90;;;;;;5013109;28;20141;-59
2022/05/03 07:33:04;;;;;;;17.67;4.45;;;10.40;99.90;;;;;;4995856;28;20049;-59
2022/05/03 07:35:30;;;;;;;16.98;3.88;;;10.20;99.90;;;;;;5013224;28;20042;-59
2022/05/03 07:37:56;;;;;;;19.77;4.22;;;10.10;99.90;;;;;;5013093;28;20061;-59
2022/05/03 07:40:22;;;;;;;12.48;3.30;;;11.10;99.90;;;;;;5012979;28;20042;-58
2022/05/03 07:42:48;;;;;;;23.02;3.95;;;10.20;99.90;;;;;;5012959;28;20046;-60
2022/05/03 07:45:15;;;;;;;16.90;3.78;;;11.30;99.90;;;;;;5013293;28;20439;-60
2022/05/03 07:47:41;;;;;;;14.23;3.50;;;10.40;99.90;;;;;;5013111;28;20539;-59
2022/05/03 07:50:07;;;;;;;15.38;3.95;;;10.10;99.90;;;;;;5012925;28;20121;-59
2022/05/03 07:52:35;;;;;;;14.50;3.72;;;10.60;99.90;;;;;;4994532;28;20502;-59
2022/05/03 07:55:02;;;;;;;17.33;5.35;;;10.90;99.90;;;;;;5012588;28;20060;-59
2022/05/03 07:57:27;;;;;;;12.77;3.10;;;10.30;99.90;;;;;;5012825;28;20116;-59
2022/05/03 07:59:55;;;;;;;14.63;3.70;;;10.30;99.90;;;;;;4994843;28;20050;-60
2022/05/03 08:02:24;;;;;;;15.13;4.57;;;11.50;99.90;;;;;;5012751;28;20121;-59
2022/05/03 08:04:51;;;;;;;15.70;3.00;;;10.60;99.90;;;;;;5009311;28;20413;-61
2022/05/03 08:07:18;;;;;;;10.18;3.13;;;10.40;99.90;;;;;;5012389;28;20046;-59
2022/05/03 08:09:45;;;;;;;16.05;3.60;;;10.60;99.90;;;;;;5011340;28;20120;-59
2022/05/03 08:12:10;;;;;;;12.98;3.53;;;11.40;99.90;;;;;;5011933;28;20054;-59
2022/05/03 08:14:36;;;;;;;12.13;3.25;;;10.40;99.90;;;;;;5011006;28;20042;-58
2022/05/03 08:17:02;;;;;;;10.88;4.35;;;10.80;99.90;;;;;;5029154;28;20045;-59
2022/05/03 08:19:28;;;;;;;;;;;10.90;99.90;;;;;;5014935;28;20033;-58
2022/05/03 08:21:56;;;;;;;12.95;3.33;;;10.60;99.90;;;;;;5032247;28;19971;-59
2022/05/03 08:24:22;;;;;;;15.25;3.28;;;10.90;99.90;;;;;;5031957;28;20053;-58
2022/05/03 08:26:48;;;;;;;;;;;10.80;99.90;;;;;;5032713;28;20080;-59
2022/05/03 08:29:14;;;;;;;15.13;3.17;;;11.00;99.90;;;;;;5031931;28;19979;-60
2022/05/03 08:31:41;;;;;;;11.80;3.50;;;10.70;99.90;;;;;;5032169;28;20057;-59
2022/05/03 08:34:06;;;;;;;23.48;4.45;;;10.40;99.90;;;;;;5014624;28;20096;-59
2022/05/03 08:36:33;;;;;;;16.77;3.70;;;11.20;99.90;;;;;;5032062;28;20049;-59
2022/05/03 08:42:02;;;;;;;16.13;3.03;;;11.00;99.90;;;;;;5032210;28;19921;-59
2022/05/03 08:44:29;;;;;;;10.80;2.33;;;10.70;99.90;;;;;;5032163;28;20143;-58
2022/05/03 08:46:56;;;;;;;9.80;2.88;;;11.10;99.90;;;;;;5031880;28;20045;-62
2022/05/03 08:49:46;;;;;;;13.27;3.08;;;11.20;99.90;;;;;;5031711;28;20080;-59
2022/05/03 08:52:14;;;;;;;8.77;2.92;;;11.10;99.90;;;;;;5013888;28;20092;-58
2022/05/03 08:54:39;;;;;;;10.90;2.70;;;11.20;99.90;;;;;;5031874;28;20155;-59
2022/05/03 08:57:07;;;;;;;13.57;3.63;;;11.00;99.90;;;;;;5031809;28;20089;-60
2022/05/03 08:59:34;;;;;;;16.02;3.28;;;11.20;99.90;;;;;;5031790;28;20130;-59
2022/05/03 09:02:00;;;;;;;10.55;3.10;;;11.80;99.90;;;;;;5019131;28;20132;-59
2022/05/03 09:04:26;;;;;;;19.02;3.22;;;11.40;99.90;;;;;;5010792;28;20513;-59
2022/05/03 09:06:52;;;;;;;12.65;3.58;;;12.20;99.90;;;;;;5010657;28;20124;-59
2022/05/03 09:09:21;;;;;;;9.00;2.67;;;11.40;99.90;;;;;;5012011;28;20096;-59
2022/05/03 09:11:49;;;;;;;14.57;2.60;;;11.20;99.90;;;;;;5013017;28;20046;-58
2022/05/03 09:14:42;;;;;;;10.05;2.53;;;11.50;99.90;;;;;;4998594;28;20393;-58
2022/05/03 09:17:08;;;;;;;12.80;2.70;;;12.30;99.90;;;;;;5001225;28;20066;-58
2022/05/03 09:19:34;;;;;;;10.77;2.72;;;11.40;99.90;;;;;;5011682;28;20465;-57
2022/05/03 09:24:58;;;;;;;10.27;2.20;;;11.30;99.90;;;;;;5011992;28;20377;-60
2022/05/03 09:27:25;;;;;;;9.35;2.20;;;11.60;99.90;;;;;;5012490;28;20379;-58
2022/05/03 09:30:08;;;;;;;9.95;2.78;;;11.60;99.90;;;;;;5009054;28;20152;-58
2022/05/03 09:32:34;;;;;;;10.25;2.83;;;11.70;99.90;;;;;;5013053;28;20525;-59
2022/05/03 09:35:00;;;;;;;11.60;2.85;;;11.90;99.90;;;;;;5013120;28;20050;-59
2022/05/03 09:37:38;;;;;;;12.63;2.42;;;11.70;99.90;;;;;;4990899;28;20155;-59
2022/05/03 09:40:06;;;;;;;8.23;2.38;;;11.90;99.90;;;;;;4990434;28;20124;-58
2022/05/03 09:42:36;;;;;;;10.60;2.20;;;11.60;99.90;;;;;;5012928;28;20559;-58
2022/05/03 09:45:04;;;;;;;8.48;1.98;;;11.90;99.90;;;;;;4994792;28;20606;-60
2022/05/03 09:47:46;;;;;;;9.02;2.50;;;11.20;99.90;;;;;;5012259;28;20065;-59
2022/05/03 09:50:23;;;;;;;12.40;2.67;;;11.60;99.90;;;;;;5009436;28;20042;-58
2022/05/03 09:52:50;;;;;;;10.90;2.28;;;11.60;99.90;;;;;;5010953;28;20053;-58
2022/05/03 09:55:28;;;;;;;5.60;2.03;;;12.00;99.90;;;;;;4995490;28;20070;-58
2022/05/03 09:57:56;;;;;;;8.45;2.40;;;12.30;99.90;;;;;;5016288;28;20056;-59
2022/05/03 10:00:21;;;;;;;10.02;2.10;;;12.50;99.90;;;;;;5018797;28;20049;-59
2022/05/03 10:02:47;;;;;;;12.43;2.35;;;12.20;99.90;;;;;;5014996;28;20042;-58
2022/05/03 10:05:15;;;;;;;11.43;2.10;;;12.50;99.90;;;;;;4997120;28;20042;-60
2022/05/03 10:07:44;;;;;;;12.00;2.13;;;12.60;99.90;;;;;;5014698;28;20513;-60
2022/05/03 10:10:12;;;;;;;7.68;2.30;;;13.10;99.90;;;;;;5014365;28;20050;-60
2022/05/03 10:12:38;;;;;;;10.02;2.13;;;12.40;99.90;;;;;;5014418;28;20050;-58
2022/05/03 10:15:05;;;;;;;8.15;2.53;;;12.40;99.90;;;;;;5014384;28;20050;-59
2022/05/03 10:20:42;;;;;;;11.25;2.60;;;13.00;99.90;;;;;;5014312;28;20116;-59
2022/05/03 10:23:23;;;;;;;8.23;2.22;;;12.00;99.90;;;;;;5013899;28;20093;-59
2022/05/03 10:26:00;;;;;;;9.65;2.42;;;12.00;99.90;;;;;;5014454;28;20048;-57
2022/05/03 10:28:58;;;;;;;5.30;2.00;;;11.80;99.90;;;;;;5014352;28;20490;-59
2022/05/03 10:31:24;;;;;;;6.47;2.00;;;11.70;99.90;;;;;;5014115;28;20060;-58
2022/05/03 10:33:50;;;;;;;7.35;2.03;;;12.30;99.90;;;;;;5014266;28;20049;-57
2022/05/03 10:36:35;;;;;;;8.40;2.67;;;12.10;99.90;;;;;;5014182;28;20052;-59
2022/05/03 10:39:27;;;;;;;6.57;2.00;;;12.00;99.90;;;;;;5014101;28;20057;-59
2022/05/03 10:42:00;;;;;;;7.45;2.45;;;13.10;99.90;;;;;;5009194;28;20065;-58
2022/05/03 10:44:53;;;;;;;9.15;2.25;;;12.20;99.90;;;;;;5013921;28;20488;-58
2022/05/03 10:47:41;;;;;;;10.25;2.53;;;12.10;99.90;;;;;;5014097;28;20085;-58
2022/05/03 10:50:13;;;;;;;6.50;1.98;;;12.20;99.90;;;;;;5013773;28;20046;-58
2022/05/03 10:53:06;;;;;;;8.82;2.30;;;11.80;99.90;;;;;;5013565;28;20060;-58
2022/05/03 10:55:35;;;;;;;9.98;2.08;;;12.20;99.90;;;;;;4996146;28;20085;-59
2022/05/03 10:58:25;;;;;;;7.35;2.20;;;12.20;99.90;;;;;;5013377;28;20108;-59
2022/05/03 11:01:10;;;;;;;10.95;2.67;;;12.00;99.90;;;;;;5012329;28;20041;-60
2022/05/03 11:03:40;;;;;;;10.75;2.38;;;12.30;99.90;;;;;;5013489;28;20053;-59
2022/05/03 11:06:23;;;;;;;8.93;2.15;;;12.10;99.90;;;;;;4995363;28;20140;-58
2022/05/03 11:14:18;;;;;;;10.15;2.15;;;12.70;99.90;;;;;;5013246;28;20457;-60
2022/05/03 11:17:10;;;;;;;8.55;2.20;;;13.20;99.90;;;;;;5012474;28;20136;-58
2022/05/03 11:19:58;;;;;;;9.10;2.38;;;12.00;99.90;;;;;;4995716;28;20065;-59
2022/05/03 11:22:30;;;;;;;10.57;2.50;;;11.90;99.90;;;;;;5013459;28;20528;-58
2022/05/03 11:24:57;;;;;;;12.65;2.75;;;11.90;99.90;;;;;;5013042;28;20085;-61
2022/05/03 11:27:24;;;;;;;9.25;2.45;;;11.80;99.90;;;;;;5012952;28;20084;-59
2022/05/03 11:29:59;;;;;;;9.50;2.40;;;12.50;99.90;;;;;;5012699;28;20062;-59
2022/05/03 11:32:39;;;;;;;12.57;2.65;;;12.40;99.90;;;;;;5013060;28;20057;-58
2022/05/03 11:35:16;;;;;;;10.65;2.60;;;12.20;99.90;;;;;;4994632;28;20054;-58
2022/05/03 11:37:55;;;;;;;13.30;2.75;;;12.70;99.90;;;;;;5013107;28;20125;-59
2022/05/03 11:40:24;;;;;;;12.18;2.65;;;12.60;99.90;;;;;;5012606;28;20489;-58
2022/05/03 11:42:51;;;;;;;13.82;2.70;;;12.10;99.90;;;;;;5012805;28;20072;-58
2022/05/03 11:45:17;;;;;;;13.02;2.58;;;12.20;99.90;;;;;;5012734;28;20084;-59
2022/05/03 11:47:47;;;;;;;9.90;2.50;;;12.60;99.90;;;;;;4995362;28;20125;-59
2022/05/03 11:55:58;;;;;;;9.50;2.42;;;14.00;99.90;;;;;;5012651;28;20042;-59
2022/05/03 11:56:04;;;;;;;10.82;2.78;;;12.60;99.90;;;;;;4989340;28;20058;-57
2022/05/03 11:58:31;;;;;;;10.68;2.85;;;12.30;99.90;;;;;;5012575;28;20045;-59
2022/05/03 12:00:57;;;;;;;9.20;2.20;;;12.60;99.90;;;;;;5012023;28;20121;-59
2022/05/03 12:03:22;;;;;;;8.95;2.30;;;13.10;99.90;;;;;;5010489;28;20133;-59
2022/05/03 12:06:00;;;;;;;11.48;2.80;;;12.50;99.90;;;;;;5011756;28;20049;-58
2022/05/03 12:08:27;;;;;;;8.65;2.25;;;12.70;99.90;;;;;;5012404;28;20046;-58
2022/05/03 12:10:56;;;;;;;6.55;2.60;;;12.70;99.90;;;;;;5012158;28;20105;-59
2022/05/03 12:13:22;;;;;;;10.38;2.20;;;12.80;99.90;;;;;;5012382;28;20177;-58
2022/05/03 12:16:08;;;;;;;14.63;2.70;;;12.70;99.90;;;;;;5012057;28;20089;-58
2022/05/03 12:18:38;;;;;;;11.18;2.92;;;12.40;99.90;;;;;;4978763;28;20046;-60
2022/05/03 12:21:09;;;;;;;13.73;3.10;;;12.80;99.90;;;;;;5012379;28;20375;-58
2022/05/03 12:23:34;;;;;;;11.43;2.35;;;12.40;99.90;;;;;;4994752;28;20044;-58
2022/05/03 12:26:18;;;;;;;9.07;2.40;;;12.90;99.90;;;;;;5012027;28;20050;-58
2022/05/03 12:28:47;;;;;;;11.93;3.03;;;12.40;99.90;;;;;;5012154;28;20093;-58
2022/05/03 12:31:14;;;;;;;11.65;2.58;;;13.60;99.90;;;;;;5011937;28;20061;-59
2022/05/03 12:33:55;;;;;;;12.15;2.47;;;12.50;99.90;;;;;;4994779;28;20065;-59
2022/05/03 12:36:31;;;;;;;7.95;2.47;;;12.90;99.90;;;;;;5012159;28;20096;-57
2022/05/03 12:39:06;;;;;;;9.53;2.30;;;12.50;99.90;;;;;;5011901;28;20052;-58
2022/05/03 12:41:34;;;;;;;11.80;2.92;;;12.50;99.90;;;;;;5021463;28;20046;-58
2022/05/03 12:44:05;;;;;;;9.68;2.55;;;12.80;99.90;;;;;;5011749;28;20037;-58
2022/05/03 12:46:32;;;;;;;12.38;2.70;;;12.90;99.90;;;;;;5013827;28;20038;-58
2022/05/03 12:49:00;;;;;;;10.13;2.30;;;12.90;99.90;;;;;;5015738;28;20053;-59
2022/05/03 12:51:26;;;;;;;11.43;2.80;;;13.30;99.90;;;;;;4995602;28;20073;-59
2022/05/03 12:53:51;;;;;;;;;;;13.50;99.90;;;;;;5014592;28;20092;-58
2022/05/03 12:59:01;;;;;;;9.25;2.50;;;13.70;99.90;;;;;;5034481;28;20052;-58
2022/05/03 13:01:26;;;;;;;;;;;13.10;99.90;;;;;;5036205;28;20052;-58
2022/05/03 13:03:54;;;;;;;12.32;2.72;;;12.80;99.90;;;;;;5035402;28;19971;-61
2022/05/03 13:06:20;;;;;;;14.05;2.60;;;14.00;99.90;;;;;;5035236;28;20049;-59
2022/05/03 13:08:47;;;;;;;9.77;2.38;;;13.40;99.90;;;;;;5010230;28;20078;-59
2022/05/03 13:11:13;;;;;;;10.35;2.60;;;13.50;99.90;;;;;;4995912;28;20117;-60
2022/05/03 13:13:38;;;;;;;11.25;2.47;;;13.50;99.90;;;;;;4995982;28;20126;-59
2022/05/03 13:16:05;;;;;;;10.63;2.55;;;13.60;99.90;;;;;;4995670;28;20467;-59
2022/05/03 13:18:31;;;;;;;11.52;2.75;;;13.40;99.90;;;;;;4995759;28;20050;-61
2022/05/03 13:20:56;;;;;;;;;;;14.50;99.90;;;;;;4996344;28;20069;-59
2022/05/03 13:23:22;;;;;;;11.18;2.80;;;13.20;99.90;;;;;;5014441;28;20032;-60
2022/05/03 13:25:48;;;;;;;11.73;2.42;;;13.30;99.90;;;;;;5034857;28;20057;-60
2022/05/03 13:28:15;;;;;;;7.78;1.73;;;13.70;99.90;;;;;;5035171;28;20045;-59
2022/05/03 13:30:42;;;;;;;8.85;2.25;;;13.60;99.90;;;;;;5014215;28;20057;-59
2022/05/03 13:33:07;;;;;;;11.48;2.83;;;13.40;99.90;;;;;;5017234;28;20659;-60
2022/05/03 13:41:02;;;;;;;11.05;2.47;;;13.30;99.90;;;;;;5034873;28;20572;-59
2022/05/03 13:43:28;;;;;;;9.65;2.03;;;13.80;99.90;;;;;;5034464;28;20140;-60
2022/05/03 13:45:54;;;;;;;13.75;3.20;;;13.70;99.90;;;;;;5034733;28;20127;-60